METAR Data
IDs: Format: Raw Decoded Include TAF

Data at: 0132 UTC 24 Oct 2019

METAR for:KPRO (Perry Muni, IA, US)
Text:KPRO 240115Z AUTO 34007KT 10SM OVC010 04/03 A3010 RMK AO2 T00430030
Temperature: 4.3°C ( 40°F)
Dewpoint: 3.0°C ( 37°F) [RH = 91%]
Pressure (altimeter):30.10 inches Hg (1019.4 mb)
Winds:from the NNW (340 degrees) at 8 MPH (7 knots; 3.6 m/s)
Visibility:10 or more sm (16+ km)
Ceiling:1000 feet AGL
Clouds: overcast cloud deck at 1000 feet AGL
QC Flag:automated observation with no human augmentation